Time;durP1;ratioP1;P1;durP2;ratioP2;P2;SDS_P1;SDS_P2;PMS_P1;PMS_P2;Temp;Humidity;BMP_temperature;BMP_pressure;BME280_temperature;BME280_humidity;BME280_pressure;Samples;Min_cycle;Max_cycle;Signal;HPM_P1;HPM_P2
2024/03/26 00:00:27;;;;;;;;;;;17.30;55.10;;;;;;5092278;28;20343;-76
2024/03/26 00:02:53;;;;;;;;;;;17.40;54.60;;;;;;5091878;28;20010;-76
2024/03/26 00:05:18;;;;;;;;;;;17.10;55.20;;;;;;5092209;28;19912;-76
2024/03/26 00:07:44;;;;;;;;;;;17.30;55.20;;;;;;5092171;28;19922;-76
2024/03/26 00:10:09;;;;;;;;;;;17.30;55.20;;;;;;5094396;28;19973;-75
2024/03/26 00:12:35;;;;;;;;;;;17.30;55.40;;;;;;5099314;28;20294;-76
2024/03/26 00:15:00;;;;;;;;;;;17.40;55.40;;;;;;5098782;28;19909;-75
2024/03/26 00:17:26;;;;;;;;;;;17.20;55.20;;;;;;5098899;28;19951;-76
2024/03/26 00:19:51;;;;;;;;;;;17.30;55.50;;;;;;5098792;28;20328;-76
2024/03/26 00:22:17;;;;;;;;;;;17.30;55.40;;;;;;5098783;28;19916;-76
2024/03/26 00:24:42;;;;;;;;;;;17.20;55.60;;;;;;5098911;28;19951;-76
2024/03/26 00:27:08;;;;;;;;;;;17.30;55.30;;;;;;5098821;28;19954;-75
2024/03/26 00:29:33;;;;;;;;;;;17.20;55.60;;;;;;5098748;28;19930;-75
2024/03/26 00:31:59;;;;;;;;;;;17.20;55.40;;;;;;5098688;28;19919;-75
2024/03/26 00:34:24;;;;;;;;;;;17.20;55.60;;;;;;5098752;28;19917;-75
2024/03/26 00:36:50;;;;;;;;;;;17.20;55.50;;;;;;5098583;28;19947;-75
2024/03/26 00:39:15;;;;;;;;;;;17.20;56.20;;;;;;5098825;28;19908;-75
2024/03/26 00:41:41;;;;;;;;;;;17.30;55.60;;;;;;5099025;28;19912;-76
2024/03/26 00:44:06;;;;;;;;;;;17.20;55.50;;;;;;5098785;28;19946;-75
2024/03/26 00:46:32;;;;;;;;;;;17.30;55.40;;;;;;5080410;28;19957;-75
2024/03/26 00:48:57;;;;;;;;;;;17.20;55.50;;;;;;5098696;28;19915;-75
2024/03/26 00:51:23;;;;;;;;;;;16.90;55.30;;;;;;5098510;28;20010;-75
2024/03/26 00:53:48;;;;;;;;;;;17.20;55.60;;;;;;5098630;28;19912;-74
2024/03/26 00:56:14;;;;;;;;;;;17.20;55.80;;;;;;5098311;28;20366;-75
2024/03/26 00:58:39;;;;;;;;;;;17.10;55.60;;;;;;5098469;28;19908;-75
2024/03/26 01:01:11;;;;;;;;;;;17.50;55.20;;;;;;5098196;28;20004;-74
2024/03/26 01:03:36;;;;;;;;;;;17.10;52.40;;;;;;5098245;28;20037;-75
2024/03/26 01:06:02;;;;;;;;;;;17.20;55.50;;;;;;5080173;28;19908;-75
2024/03/26 01:08:28;;;;;;;;;;;17.20;55.70;;;;;;5098275;28;19907;-74
2024/03/26 01:10:54;;;;;;;;;;;17.20;55.10;;;;;;5098827;28;20378;-74
2024/03/26 01:13:19;;;;;;;;;;;17.10;55.80;;;;;;5098249;28;19909;-74
2024/03/26 01:15:44;;;;;;;;;;;17.10;55.40;;;;;;5098193;28;19948;-75
2024/03/26 01:18:10;;;;;;;;;;;17.10;55.80;;;;;;5098177;28;20366;-74
2024/03/26 01:20:36;;;;;;;;;;;16.90;55.90;;;;;;5098171;28;19934;-75
2024/03/26 01:23:01;;;;;;;;;;;17.00;55.80;;;;;;5095137;28;20321;-76
2024/03/26 01:25:27;;;;;;;;;;;17.10;55.90;;;;;;5094916;28;19908;-76
2024/03/26 01:27:53;;;;;;;;;;;17.10;55.90;;;;;;5094888;28;19915;-76
2024/03/26 01:30:18;;;;;;;;;;;17.00;55.90;;;;;;5094867;28;20338;-76
2024/03/26 01:32:44;;;;;;;;;;;17.10;56.00;;;;;;5094882;28;19908;-76
2024/03/26 01:35:10;;;;;;;;;;;17.00;55.90;;;;;;5094794;28;20002;-76
2024/03/26 01:37:35;;;;;;;;;;;17.00;55.90;;;;;;5094791;28;19960;-76
2024/03/26 01:40:00;;;;;;;;;;;17.00;56.00;;;;;;5095286;28;19909;-76
2024/03/26 01:42:26;;;;;;;;;;;17.00;55.90;;;;;;5094527;28;19923;-76
2024/03/26 01:44:51;;;;;;;;;;;17.00;55.80;;;;;;5094636;28;20251;-75
2024/03/26 01:47:17;;;;;;;;;;;17.00;56.00;;;;;;5094590;28;19908;-76
2024/03/26 01:49:44;;;;;;;;;;;17.00;56.30;;;;;;5094847;28;19909;-76
2024/03/26 01:52:10;;;;;;;;;;;17.00;56.10;;;;;;5094432;28;19931;-76
2024/03/26 01:54:36;;;;;;;;;;;14.90;55.10;;;;;;5094963;28;19908;-75
2024/03/26 01:57:02;;;;;;;;;;;17.00;56.20;;;;;;5094295;28;19908;-76
2024/03/26 01:59:28;;;;;;;;;;;16.90;56.00;;;;;;5094433;28;19912;-76
2024/03/26 02:01:54;;;;;;;;;;;17.10;55.60;;;;;;5093870;28;19927;-76
2024/03/26 02:04:20;;;;;;;;;;;17.00;56.10;;;;;;5094282;28;19908;-76
2024/03/26 02:06:45;;;;;;;;;;;17.00;56.40;;;;;;5094206;28;19963;-76
2024/03/26 02:09:11;;;;;;;;;;;17.20;56.30;;;;;;5094219;28;19908;-76
2024/03/26 02:11:39;;;;;;;;;;;17.00;55.80;;;;;;5094045;28;19915;-76
2024/03/26 02:14:04;;;;;;;;;;;16.90;56.20;;;;;;5094047;28;20327;-76
2024/03/26 02:16:30;;;;;;;;;;;17.00;56.40;;;;;;5093967;28;19998;-76
2024/03/26 02:18:55;;;;;;;;;;;17.00;56.30;;;;;;5094020;28;19908;-76
2024/03/26 02:21:21;;;;;;;;;;;16.90;56.30;;;;;;5093911;28;20007;-76
2024/03/26 02:23:46;;;;;;;;;;;16.90;56.00;;;;;;5093951;28;19953;-76
2024/03/26 02:26:15;;;;;;;;;;;16.90;56.30;;;;;;5094367;28;19915;-75
2024/03/26 02:28:41;;;;;;;;;;;16.90;56.10;;;;;;5093739;28;20377;-76
2024/03/26 02:31:06;;;;;;;;;;;16.90;56.20;;;;;;5093731;28;19915;-76
2024/03/26 02:33:31;;;;;;;;;;;17.00;56.20;;;;;;5093150;28;19954;-76
2024/03/26 02:35:57;;;;;;;;;;;16.90;56.00;;;;;;5093931;28;20003;-76
2024/03/26 02:38:22;;;;;;;;;;;16.90;56.20;;;;;;5093745;28;19915;-76
2024/03/26 02:40:48;;;;;;;;;;;16.90;56.20;;;;;;5093484;28;19916;-76
2024/03/26 02:43:13;;;;;;;;;;;16.90;56.30;;;;;;5093359;28;19955;-76
2024/03/26 02:45:39;;;;;;;;;;;16.90;56.20;;;;;;5093279;28;19962;-76
2024/03/26 02:48:06;;;;;;;;;;;17.00;56.40;;;;;;5093462;28;19908;-76
2024/03/26 02:50:32;;;;;;;;;;;16.90;55.00;;;;;;5093314;28;19908;-76
2024/03/26 02:52:57;;;;;;;;;;;16.80;56.20;;;;;;5093382;28;19916;-76
2024/03/26 02:55:23;;;;;;;;;;;17.90;57.00;;;;;;5093675;28;19915;-75
2024/03/26 02:57:48;;;;;;;;;;;16.90;56.10;;;;;;5093017;28;19955;-76
2024/03/26 03:00:15;;;;;;;;;;;16.80;56.10;;;;;;5093060;28;19958;-76
2024/03/26 03:02:40;;;;;;;;;;;16.90;55.80;;;;;;5092789;28;19995;-76
2024/03/26 03:05:07;;;;;;;;;;;16.80;56.40;;;;;;5093264;28;19939;-76
2024/03/26 03:07:33;;;;;;;;;;;16.90;55.40;;;;;;5093282;28;20259;-76
2024/03/26 03:09:58;;;;;;;;;;;17.10;56.50;;;;;;5093132;28;19919;-76
2024/03/26 03:12:24;;;;;;;;;;;16.80;56.40;;;;;;5092827;28;19908;-76
2024/03/26 03:14:50;;;;;;;;;;;16.80;56.40;;;;;;5092762;28;19908;-76
2024/03/26 03:17:16;;;;;;;;;;;16.70;56.70;;;;;;5093002;28;19908;-76
2024/03/26 03:19:42;;;;;;;;;;;16.80;56.60;;;;;;5092924;28;19907;-76
2024/03/26 03:22:08;;;;;;;;;;;16.80;56.10;;;;;;5092993;28;20394;-76
2024/03/26 03:24:34;;;;;;;;;;;16.70;56.30;;;;;;5092772;28;19908;-75
2024/03/26 03:27:00;;;;;;;;;;;16.70;56.40;;;;;;5092876;28;19908;-76
2024/03/26 03:29:26;;;;;;;;;;;16.70;56.50;;;;;;5092925;28;20342;-76
2024/03/26 03:31:52;;;;;;;;;;;16.80;56.40;;;;;;5092800;28;20374;-76
2024/03/26 03:34:17;;;;;;;;;;;16.70;56.30;;;;;;5092524;28;19987;-76
2024/03/26 03:36:43;;;;;;;;;;;16.70;56.60;;;;;;5092709;28;19916;-75
2024/03/26 03:39:10;;;;;;;;;;;16.80;56.60;;;;;;5092417;28;19933;-75
2024/03/26 03:41:36;;;;;;;;;;;16.70;56.40;;;;;;5092594;28;19920;-75
2024/03/26 03:44:02;;;;;;;;;;;16.70;56.60;;;;;;5092074;28;20050;-75
2024/03/26 03:46:27;;;;;;;;;;;16.50;56.70;;;;;;5091923;28;20379;-76
2024/03/26 03:48:53;;;;;;;;;;;16.70;56.70;;;;;;5092292;28;20266;-76
2024/03/26 03:51:19;;;;;;;;;;;16.50;56.30;;;;;;5092714;28;19934;-76
2024/03/26 03:53:45;;;;;;;;;;;16.60;56.90;;;;;;5092437;28;19912;-76
2024/03/26 03:56:11;;;;;;;;;;;16.60;57.20;;;;;;5092434;28;19908;-76
2024/03/26 03:58:37;;;;;;;;;;;16.70;56.80;;;;;;5092138;28;19908;-75
2024/03/26 04:01:03;;;;;;;;;;;;;;;;;;5091916;28;19954;-75
2024/03/26 04:03:29;;;;;;;;;;;16.80;53.00;;;;;;5091834;28;19924;-75
2024/03/26 04:05:54;;;;;;;;;;;16.60;57.10;;;;;;5091858;28;19912;-75
2024/03/26 04:08:20;;;;;;;;;;;16.70;57.30;;;;;;5092029;28;19912;-76
2024/03/26 04:10:46;;;;;;;;;;;16.60;57.00;;;;;;5091962;28;19912;-75
2024/03/26 04:13:12;;;;;;;;;;;16.80;57.00;;;;;;5091920;28;19950;-76
2024/03/26 04:15:38;;;;;;;;;;;16.60;56.70;;;;;;5091874;28;20002;-75
2024/03/26 04:18:04;;;;;;;;;;;16.50;56.90;;;;;;5091722;28;19957;-76
2024/03/26 04:20:30;;;;;;;;;;;16.70;56.50;;;;;;5092744;28;19999;-76
2024/03/26 04:22:55;;;;;;;;;;;16.60;56.70;;;;;;5091835;28;19982;-76
2024/03/26 04:25:21;;;;;;;;;;;16.60;56.90;;;;;;5091889;28;20434;-76
2024/03/26 04:27:46;;;;;;;;;;;16.60;57.10;;;;;;5091801;28;19908;-75
2024/03/26 04:30:12;;;;;;;;;;;16.60;57.00;;;;;;5091886;28;20313;-76
2024/03/26 04:32:37;;;;;;;;;;;16.60;57.00;;;;;;5091945;28;19944;-75
2024/03/26 04:35:03;;;;;;;;;;;16.60;56.90;;;;;;5091780;28;19909;-75
2024/03/26 04:37:28;;;;;;;;;;;16.60;56.60;;;;;;5091840;28;20275;-75
2024/03/26 04:39:54;;;;;;;;;;;16.50;57.10;;;;;;5091659;28;20325;-75
2024/03/26 04:42:20;;;;;;;;;;;16.60;57.10;;;;;;5091712;28;19963;-75
2024/03/26 04:44:46;;;;;;;;;;;16.60;57.30;;;;;;5091783;28;20290;-75
2024/03/26 04:47:11;;;;;;;;;;;16.50;57.00;;;;;;5092253;28;19934;-75
2024/03/26 04:49:36;;;;;;;;;;;16.70;57.40;;;;;;5091718;28;19954;-75
2024/03/26 04:52:02;;;;;;;;;;;16.80;57.40;;;;;;5091660;28;19908;-75
2024/03/26 04:54:28;;;;;;;;;;;16.60;57.30;;;;;;5091706;28;20397;-76
2024/03/26 04:56:53;;;;;;;;;;;16.60;57.40;;;;;;5093789;28;20328;-76
2024/03/26 04:59:19;;;;;;;;;;;16.70;57.10;;;;;;5095351;28;19908;-75
2024/03/26 05:01:44;;;;;;;;;;;16.70;56.60;;;;;;5095098;28;19928;-75
2024/03/26 05:04:10;;;;;;;;;;;16.60;57.40;;;;;;5095235;28;19908;-75
2024/03/26 05:06:35;;;;;;;;;;;16.60;57.50;;;;;;5095254;28;19977;-75
2024/03/26 05:09:01;;;;;;;;;;;16.60;57.50;;;;;;5095167;28;20271;-75
2024/03/26 05:11:26;;;;;;;;;;;16.60;57.70;;;;;;5095199;28;19915;-75
2024/03/26 05:13:52;;;;;;;;;;;16.60;57.70;;;;;;5095358;28;19908;-75
2024/03/26 05:16:17;;;;;;;;;;;16.70;57.70;;;;;;5095615;28;19940;-76
2024/03/26 05:18:43;;;;;;;;;;;16.70;57.90;;;;;;5095084;28;19978;-76
2024/03/26 05:21:09;;;;;;;;;;;16.60;58.10;;;;;;5094904;28;19912;-76
2024/03/26 05:23:34;;;;;;;;;;;16.70;58.00;;;;;;5076682;28;19959;-76
2024/03/26 05:26:00;;;;;;;;;;;16.60;58.00;;;;;;5094882;28;20351;-76
2024/03/26 05:28:25;;;;;;;;;;;16.60;57.70;;;;;;5094917;28;19915;-75
2024/03/26 05:30:50;;;;;;;;;;;16.60;58.00;;;;;;5094912;28;19915;-75
2024/03/26 05:33:16;;;;;;;;;;;16.70;58.00;;;;;;5094616;28;19909;-75
2024/03/26 05:35:42;;;;;;;;;;;16.60;58.10;;;;;;5094547;28;19999;-75
2024/03/26 05:38:08;;;;;;;;;;;16.60;58.10;;;;;;5075999;28;20015;-75
2024/03/26 05:40:33;;;;;;;;;;;16.60;58.10;;;;;;5094427;28;20409;-75
2024/03/26 05:42:59;;;;;;;;;;;16.60;58.60;;;;;;5094400;28;19916;-75
2024/03/26 05:45:24;;;;;;;;;;;16.70;57.90;;;;;;5094807;28;19994;-75
2024/03/26 05:47:51;;;;;;;;;;;16.60;58.20;;;;;;5094427;28;19908;-76
2024/03/26 05:50:16;;;;;;;;;;;16.60;58.10;;;;;;5094277;28;20374;-75
2024/03/26 05:52:42;;;;;;;;;;;16.60;58.40;;;;;;5094250;28;19908;-76
2024/03/26 05:55:07;;;;;;;;;;;16.60;57.90;;;;;;5094274;28;19908;-76
2024/03/26 05:57:33;;;;;;;;;;;16.50;57.40;;;;;;5094264;28;20002;-76
2024/03/26 05:59:58;;;;;;;;;;;16.50;58.10;;;;;;5094193;28;19912;-76
2024/03/26 06:02:24;;;;;;;;;;;16.60;58.10;;;;;;5093703;28;19990;-76
2024/03/26 06:04:49;;;;;;;;;;;16.50;58.20;;;;;;5094077;28;19908;-74
2024/03/26 06:07:15;;;;;;;;;;;16.50;57.90;;;;;;5093807;28;19908;-76
2024/03/26 06:09:40;;;;;;;;;;;16.50;58.20;;;;;;5093258;28;19995;-76
2024/03/26 06:12:06;;;;;;;;;;;16.50;58.30;;;;;;5075623;28;20282;-76
2024/03/26 06:14:31;;;;;;;;;;;16.60;58.30;;;;;;5094377;28;19908;-75
2024/03/26 06:16:57;;;;;;;;;;;16.50;58.40;;;;;;5093690;28;19914;-76
2024/03/26 06:19:22;;;;;;;;;;;16.60;59.10;;;;;;5093675;28;19908;-76
2024/03/26 06:21:48;;;;;;;;;;;16.60;58.30;;;;;;5093607;28;19927;-76
2024/03/26 06:24:13;;;;;;;;;;;16.50;58.20;;;;;;5075421;28;19908;-76
2024/03/26 06:26:39;;;;;;;;;;;16.50;58.40;;;;;;5093650;28;19920;-76
2024/03/26 06:29:04;;;;;;;;;;;16.50;58.00;;;;;;5093469;28;19948;-76
2024/03/26 06:31:29;;;;;;;;;;;16.60;57.80;;;;;;5093488;28;19954;-76
2024/03/26 06:33:55;;;;;;;;;;;16.50;58.30;;;;;;5093394;28;20267;-75
2024/03/26 06:36:20;;;;;;;;;;;16.60;57.80;;;;;;5093359;28;19916;-75
2024/03/26 06:38:47;;;;;;;;;;;16.50;58.40;;;;;;5093458;28;20006;-75
2024/03/26 06:41:12;;;;;;;;;;;16.60;58.20;;;;;;5093648;28;19908;-74
2024/03/26 06:43:37;;;;;;;;;;;16.60;58.40;;;;;;5093093;28;20030;-76
2024/03/26 06:46:04;;;;;;;;;;;16.50;58.20;;;;;;5093170;28;19912;-76
2024/03/26 06:48:29;;;;;;;;;;;16.50;57.80;;;;;;5093179;28;19908;-76
2024/03/26 06:50:55;;;;;;;;;;;16.50;58.30;;;;;;5074925;28;20031;-76
2024/03/26 06:53:20;;;;;;;;;;;16.50;58.40;;;;;;5093029;28;19915;-75
2024/03/26 06:55:46;;;;;;;;;;;16.50;58.20;;;;;;5092967;28;19908;-75
2024/03/26 06:58:11;;;;;;;;;;;16.50;58.20;;;;;;5092893;28;19914;-78
2024/03/26 07:00:37;;;;;;;;;;;16.50;58.40;;;;;;5092745;28;19908;-80
2024/03/26 07:03:02;;;;;;;;;;;16.40;57.00;;;;;;5092663;28;19920;-74
2024/03/26 07:05:28;;;;;;;;;;;16.50;57.70;;;;;;5092640;28;19908;-72
2024/03/26 07:07:54;;;;;;;;;;;16.40;58.10;;;;;;5092624;28;19910;-72
2024/03/26 07:10:20;;;;;;;;;;;16.60;57.90;;;;;;5093177;28;20294;-72
2024/03/26 07:12:46;;;;;;;;;;;16.90;58.20;;;;;;5092862;28;19965;-72
2024/03/26 07:15:12;;;;;;;;;;;16.50;58.20;;;;;;5092581;28;19930;-72
2024/03/26 07:17:40;;;;;;;;;;;16.50;58.30;;;;;;5092546;28;19908;-74
2024/03/26 07:20:09;;;;;;;;;;;16.10;58.00;;;;;;5094702;28;19908;-74
2024/03/26 07:22:34;;;;;;;;;;;16.50;57.20;;;;;;5092551;28;19923;-71
2024/03/26 07:25:00;;;;;;;;;;;16.50;58.20;;;;;;5092288;28;19937;-71
2024/03/26 07:27:25;;;;;;;;;;;16.50;58.40;;;;;;5092220;28;19908;-72
2024/03/26 07:29:51;;;;;;;;;;;16.50;58.30;;;;;;5092513;28;20040;-72
2024/03/26 07:32:16;;;;;;;;;;;16.50;58.70;;;;;;5092197;28;19919;-69
2024/03/26 07:34:42;;;;;;;;;;;16.50;58.40;;;;;;5073925;28;19958;-70
2024/03/26 07:37:08;;;;;;;;;;;16.50;58.30;;;;;;5092248;28;19991;-70
2024/03/26 07:39:33;;;;;;;;;;;16.50;57.90;;;;;;5092530;28;20007;-72
2024/03/26 07:41:58;;;;;;;;;;;16.50;58.30;;;;;;5092000;28;20266;-71
2024/03/26 07:44:24;;;;;;;;;;;16.50;58.40;;;;;;5092215;28;19908;-70
2024/03/26 07:46:49;;;;;;;;;;;16.40;57.90;;;;;;5091932;28;20008;-69
2024/03/26 07:49:15;;;;;;;;;;;16.50;58.50;;;;;;5092053;28;20298;-72
2024/03/26 07:51:40;;;;;;;;;;;16.50;58.20;;;;;;5091860;28;20036;-72
2024/03/26 07:54:06;;;;;;;;;;;16.50;58.40;;;;;;5091866;28;19981;-72
2024/03/26 07:56:32;;;;;;;;;;;16.60;58.30;;;;;;5092253;28;20226;-73
2024/03/26 07:58:58;;;;;;;;;;;16.50;58.30;;;;;;5091863;28;19998;-73
2024/03/26 08:01:24;;;;;;;;;;;16.50;58.00;;;;;;5091646;28;20010;-72
2024/03/26 08:03:50;;;;;;;;;;;16.50;58.40;;;;;;5091688;28;19965;-73
2024/03/26 08:06:16;;;;;;;;;;;16.50;58.60;;;;;;5092133;28;19915;-73
2024/03/26 08:08:41;;;;;;;;;;;16.60;57.90;;;;;;5092431;28;19912;-71
2024/03/26 08:11:07;;;;;;;;;;;16.50;58.50;;;;;;5091697;28;19908;-72
2024/03/26 08:13:33;;;;;;;;;;;16.50;58.40;;;;;;5091693;28;19908;-73
2024/03/26 08:15:58;;;;;;;;;;;16.50;58.80;;;;;;5091676;28;20010;-72
2024/03/26 08:18:24;;;;;;;;;;;16.50;58.50;;;;;;5091818;28;20010;-73
2024/03/26 08:20:50;;;;;;;;;;;16.50;58.50;;;;;;5091752;28;19912;-73
2024/03/26 08:23:15;;;;;;;;;;;16.50;58.20;;;;;;5091961;28;19962;-72
2024/03/26 08:25:41;;;;;;;;;;;16.50;58.50;;;;;;5091646;28;19912;-72
2024/03/26 08:28:06;;;;;;;;;;;16.50;58.70;;;;;;5073278;28;19915;-75
2024/03/26 08:30:32;;;;;;;;;;;16.50;58.40;;;;;;5091463;28;19908;-74
2024/03/26 08:32:57;;;;;;;;;;;16.70;58.50;;;;;;5095178;28;19946;-75
2024/03/26 08:35:24;;;;;;;;;;;16.60;57.90;;;;;;5096088;28;19999;-72
2024/03/26 08:37:50;;;;;;;;;;;16.60;58.20;;;;;;5095448;28;20324;-73
2024/03/26 08:40:16;;;;;;;;;;;16.50;58.30;;;;;;5095788;28;19934;-73
2024/03/26 08:42:41;;;;;;;;;;;16.60;58.40;;;;;;5077047;28;19920;-73
2024/03/26 08:45:08;;;;;;;;;;;16.60;58.70;;;;;;5095454;28;20004;-73
2024/03/26 08:47:34;;;;;;;;;;;16.00;57.60;;;;;;5095555;28;19908;-73
2024/03/26 08:50:00;;;;;;;;;;;16.50;58.30;;;;;;5095386;28;19931;-73
2024/03/26 08:52:25;;;;;;;;;;;16.60;58.60;;;;;;5095092;28;20338;-73
2024/03/26 08:54:51;;;;;;;;;;;16.50;58.20;;;;;;5094979;28;19938;-73
2024/03/26 08:57:17;;;;;;;;;;;16.60;58.50;;;;;;5094973;28;19908;-73
2024/03/26 08:59:44;;;;;;;;;;;16.60;58.50;;;;;;5095175;28;19915;-73
2024/03/26 09:02:09;;;;;;;;;;;16.70;57.70;;;;;;5094474;28;20335;-74
2024/03/26 09:04:38;;;;;;;;;;;16.60;58.60;;;;;;5095492;28;20002;-74
2024/03/26 09:07:03;;;;;;;;;;;16.60;58.70;;;;;;5094743;28;20389;-75
2024/03/26 09:09:29;;;;;;;;;;;16.80;58.60;;;;;;5094815;28;19965;-75
2024/03/26 09:11:54;;;;;;;;;;;16.60;58.60;;;;;;5094721;28;20057;-72
2024/03/26 09:14:20;;;;;;;;;;;16.60;58.50;;;;;;5094615;28;20045;-76
2024/03/26 09:16:46;;;;;;;;;;;16.70;58.20;;;;;;5094844;28;19991;-75
2024/03/26 09:19:11;;;;;;;;;;;16.60;58.40;;;;;;5094750;28;20424;-73
2024/03/26 09:21:37;;;;;;;;;;;16.60;58.60;;;;;;5096814;28;19919;-72
2024/03/26 09:24:03;;;;;;;;;;;16.60;58.50;;;;;;5094435;28;19908;-73
2024/03/26 09:26:29;;;;;;;;;;;16.60;58.30;;;;;;5094632;28;19956;-73
2024/03/26 09:28:55;;;;;;;;;;;16.70;58.00;;;;;;5094464;28;19947;-72
2024/03/26 09:31:21;;;;;;;;;;;16.60;58.10;;;;;;5094642;28;20273;-74
2024/03/26 09:33:47;;;;;;;;;;;16.70;58.50;;;;;;5094840;28;19908;-74
2024/03/26 09:36:13;;;;;;;;;;;16.60;58.70;;;;;;5094477;28;19908;-73
2024/03/26 09:38:38;;;;;;;;;;;16.60;58.60;;;;;;5094193;28;19965;-75
2024/03/26 09:41:04;;;;;;;;;;;16.60;58.50;;;;;;5094166;28;19908;-73
2024/03/26 09:43:30;;;;;;;;;;;16.80;58.60;;;;;;5092880;28;20066;-72
2024/03/26 09:45:57;;;;;;;;;;;16.60;58.70;;;;;;5094411;28;19908;-73
2024/03/26 09:48:23;;;;;;;;;;;16.80;58.30;;;;;;5094195;28;20261;-73
2024/03/26 09:50:50;;;;;;;;;;;16.60;58.30;;;;;;5093842;28;19908;-74
2024/03/26 09:53:17;;;;;;;;;;;16.30;58.60;;;;;;5094016;28;19912;-74
2024/03/26 09:55:44;;;;;;;;;;;16.60;58.80;;;;;;5093946;28;19938;-73
2024/03/26 09:58:10;;;;;;;;;;;16.60;58.40;;;;;;5094159;28;19908;-74
2024/03/26 10:00:37;;;;;;;;;;;16.70;58.60;;;;;;5094688;28;19908;-73
2024/03/26 10:03:05;;;;;;;;;;;16.60;57.80;;;;;;5093595;28;19924;-73
2024/03/26 10:05:31;;;;;;;;;;;16.70;58.40;;;;;;5093831;28;19908;-73
2024/03/26 10:07:57;;;;;;;;;;;16.60;58.50;;;;;;5094001;28;19914;-73
2024/03/26 10:10:25;;;;;;;;;;;16.70;56.40;;;;;;5093358;28;20223;-73
2024/03/26 10:12:50;;;;;;;;;;;16.70;58.50;;;;;;5093700;28;20374;-73
2024/03/26 10:15:16;;;;;;;;;;;16.70;58.50;;;;;;5093669;28;19916;-74
2024/03/26 10:17:41;;;;;;;;;;;16.70;58.50;;;;;;5093652;28;20251;-74
2024/03/26 10:20:10;;;;;;;;;;;16.70;58.30;;;;;;5093514;28;19908;-74
2024/03/26 10:22:36;;;;;;;;;;;16.90;56.90;;;;;;5093309;28;19977;-74
2024/03/26 10:25:01;;;;;;;;;;;16.70;58.90;;;;;;5093459;28;19912;-73
2024/03/26 10:27:27;;;;;;;;;;;16.70;59.00;;;;;;5093281;28;19953;-73
2024/03/26 10:29:52;;;;;;;;;;;16.70;58.80;;;;;;5093843;28;19951;-73
2024/03/26 10:32:21;;;;;;;;;;;16.70;58.80;;;;;;5093186;28;19912;-75
2024/03/26 10:34:50;;;;;;;;;;;16.80;58.90;;;;;;5093178;28;20235;-75
2024/03/26 10:37:15;;;;;;;;;;;16.80;59.00;;;;;;5093179;28;19908;-74
2024/03/26 10:39:44;;;;;;;;;;;16.80;58.70;;;;;;5092985;28;20042;-72
2024/03/26 10:42:10;;;;;;;;;;;16.80;58.70;;;;;;5093222;28;19968;-71
2024/03/26 10:44:35;;;;;;;;;;;16.80;58.50;;;;;;5093057;28;19915;-72
2024/03/26 10:47:01;;;;;;;;;;;16.80;58.60;;;;;;5093109;28;19909;-72
2024/03/26 10:49:29;;;;;;;;;;;16.70;58.90;;;;;;5092958;28;19912;-72
2024/03/26 10:51:55;;;;;;;;;;;16.80;58.80;;;;;;5092938;28;20447;-72
2024/03/26 10:54:21;;;;;;;;;;;16.90;58.60;;;;;;5092585;28;20304;-73
2024/03/26 10:56:49;;;;;;;;;;;16.90;58.60;;;;;;5092981;28;19969;-74
2024/03/26 10:59:15;;;;;;;;;;;16.90;58.50;;;;;;5093521;28;19908;-72
2024/03/26 11:01:41;;;;;;;;;;;16.90;58.60;;;;;;5092512;28;20239;-72
2024/03/26 11:04:08;;;;;;;;;;;17.50;59.30;;;;;;5092758;28;19941;-72
2024/03/26 11:06:34;;;;;;;;;;;16.80;58.70;;;;;;5092714;28;19908;-76
2024/03/26 11:09:03;;;;;;;;;;;16.80;58.60;;;;;;5092795;28;20369;-75
2024/03/26 11:11:32;;;;;;;;;;;16.70;55.10;;;;;;5092503;28;19934;-73
2024/03/26 11:13:58;;;;;;;;;;;16.80;55.20;;;;;;5092187;28;19916;-74
2024/03/26 11:16:34;;;;;;;;;;;17.10;58.50;;;;;;5091973;28;19908;-73
2024/03/26 11:19:19;;;;;;;;;;;16.90;55.40;;;;;;5091660;28;20263;-72
2024/03/26 11:21:47;;;;;;;;;;;16.90;55.30;;;;;;5091569;28;19908;-76
2024/03/26 11:24:23;;;;;;;;;;;17.00;58.90;;;;;;5094216;28;20354;-72
2024/03/26 11:26:49;;;;;;;;;;;16.90;55.40;;;;;;5091913;28;19919;-72
2024/03/26 11:29:15;;;;;;;;;;;16.80;58.90;;;;;;5092137;28;19909;-72
2024/03/26 11:31:41;;;;;;;;;;;16.90;58.50;;;;;;5092564;28;19959;-74
2024/03/26 11:34:06;;;;;;;;;;;17.00;59.20;;;;;;5092213;28;20278;-72
2024/03/26 11:36:33;;;;;;;;;;;16.90;58.80;;;;;;5092396;28;19916;-72
2024/03/26 11:38:59;;;;;;;;;;;16.90;59.00;;;;;;5092733;28;19919;-72
2024/03/26 11:41:25;;;;;;;;;;;16.80;58.80;;;;;;5092477;28;19993;-72
2024/03/26 11:43:51;;;;;;;;;;;16.90;59.10;;;;;;5092397;28;20030;-72
2024/03/26 11:46:17;;;;;;;;;;;16.90;58.90;;;;;;5092419;28;19940;-72
2024/03/26 11:48:53;;;;;;;;;;;16.90;58.80;;;;;;5092316;28;20173;-73
2024/03/26 11:51:20;;;;;;;;;;;16.90;59.00;;;;;;5092268;28;19912;-72
2024/03/26 11:53:46;;;;;;;;;;;17.00;58.90;;;;;;5092258;28;20254;-73
2024/03/26 11:56:12;;;;;;;;;;;17.10;58.90;;;;;;5091931;28;19912;-73
2024/03/26 11:58:38;;;;;;;;;;;16.90;58.80;;;;;;5091919;28;19909;-73
2024/03/26 12:01:04;;;;;;;;;;;;;;;;;;5092115;28;20018;-72
2024/03/26 12:03:30;;;;;;;;;;;17.10;58.60;;;;;;5092062;28;19920;-73
2024/03/26 12:05:56;;;;;;;;;;;17.00;58.70;;;;;;5090995;28;19961;-72
2024/03/26 12:08:22;;;;;;;;;;;17.00;58.90;;;;;;5092073;28;19953;-72
2024/03/26 12:10:48;;;;;;;;;;;17.00;58.60;;;;;;5091736;28;19911;-73
2024/03/26 12:13:14;;;;;;;;;;;17.00;58.70;;;;;;5091764;28;19908;-73
2024/03/26 12:15:40;;;;;;;;;;;17.00;58.50;;;;;;5092023;28;19908;-72
2024/03/26 12:18:05;;;;;;;;;;;17.00;58.60;;;;;;5092097;28;19999;-72
2024/03/26 12:20:31;;;;;;;;;;;17.10;58.40;;;;;;5091988;28;20003;-72
2024/03/26 12:22:57;;;;;;;;;;;17.10;58.10;;;;;;5091796;28;19923;-72
2024/03/26 12:25:23;;;;;;;;;;;17.10;58.60;;;;;;5091817;28;19931;-72
2024/03/26 12:27:49;;;;;;;;;;;17.10;58.70;;;;;;5091343;28;20254;-72
2024/03/26 12:30:15;;;;;;;;;;;17.10;58.50;;;;;;5091865;28;19939;-73
2024/03/26 12:32:41;;;;;;;;;;;17.10;58.70;;;;;;5092295;28;20262;-72
2024/03/26 12:35:08;;;;;;;;;;;17.00;58.30;;;;;;5091799;28;19912;-73
2024/03/26 12:37:34;;;;;;;;;;;17.10;58.50;;;;;;5091812;28;19951;-72
2024/03/26 12:40:00;;;;;;;;;;;17.10;58.70;;;;;;5091770;28;20227;-73
2024/03/26 12:42:26;;;;;;;;;;;17.20;58.60;;;;;;5091356;28;19916;-73
2024/03/26 12:44:52;;;;;;;;;;;17.10;58.50;;;;;;5091886;28;19947;-72
2024/03/26 12:47:18;;;;;;;;;;;17.20;58.40;;;;;;5091526;28;19991;-73
2024/03/26 12:49:44;;;;;;;;;;;17.20;58.60;;;;;;5091682;28;19908;-72
2024/03/26 12:52:10;;;;;;;;;;;17.20;58.40;;;;;;5091468;28;20327;-73
2024/03/26 12:54:36;;;;;;;;;;;17.10;58.50;;;;;;5091724;28;19915;-72
2024/03/26 12:57:02;;;;;;;;;;;17.10;58.30;;;;;;5091748;28;19915;-72
2024/03/26 12:59:28;;;;;;;;;;;17.20;58.20;;;;;;5091670;28;20281;-73
2024/03/26 13:01:55;;;;;;;;;;;17.30;57.50;;;;;;5091407;28;19920;-72
2024/03/26 13:04:21;;;;;;;;;;;17.20;58.00;;;;;;5091326;28;19912;-72
2024/03/26 13:06:47;;;;;;;;;;;17.20;58.10;;;;;;5091281;28;19961;-72
2024/03/26 13:09:13;;;;;;;;;;;17.20;58.70;;;;;;5091214;28;19908;-72
2024/03/26 13:11:39;;;;;;;;;;;17.20;58.70;;;;;;5091381;28;19908;-72
2024/03/26 13:14:07;;;;;;;;;;;17.30;58.70;;;;;;5091463;28;19984;-73
2024/03/26 13:16:33;;;;;;;;;;;16.80;57.80;;;;;;5091470;28;19908;-73
2024/03/26 13:18:59;;;;;;;;;;;17.20;58.40;;;;;;5094619;28;19916;-72
2024/03/26 13:21:24;;;;;;;;;;;17.20;57.70;;;;;;5094777;28;19962;-72
2024/03/26 13:23:50;;;;;;;;;;;17.30;57.90;;;;;;5094947;28;19916;-72
2024/03/26 13:26:16;;;;;;;;;;;17.30;58.30;;;;;;5095214;28;19908;-73
2024/03/26 13:28:42;;;;;;;;;;;17.50;58.70;;;;;;5095446;28;19908;-72
2024/03/26 13:31:08;;;;;;;;;;;17.20;58.50;;;;;;5094877;28;20250;-72
2024/03/26 13:33:34;;;;;;;;;;;17.30;58.40;;;;;;5094578;28;19961;-72
2024/03/26 13:36:01;;;;;;;;;;;17.30;58.60;;;;;;5094887;28;19908;-72
2024/03/26 13:38:27;;;;;;;;;;;17.30;58.50;;;;;;5094724;28;19916;-72
2024/03/26 13:40:53;;;;;;;;;;;17.30;58.70;;;;;;5094521;28;20282;-72
2024/03/26 13:43:19;;;;;;;;;;;17.30;58.70;;;;;;5094653;28;20007;-72
2024/03/26 13:45:46;;;;;;;;;;;17.10;58.60;;;;;;5094615;28;19946;-72
2024/03/26 13:48:13;;;;;;;;;;;17.30;59.10;;;;;;5094194;28;19912;-72
2024/03/26 13:50:40;;;;;;;;;;;17.30;58.80;;;;;;5094581;28;19919;-72
2024/03/26 13:53:06;;;;;;;;;;;17.30;58.90;;;;;;5094439;28;19915;-73
2024/03/26 13:55:33;;;;;;;;;;;17.30;58.80;;;;;;5094168;28;19908;-72
2024/03/26 13:57:59;;;;;;;;;;;17.30;58.60;;;;;;5096686;28;19912;-72
2024/03/26 14:00:25;;;;;;;;;;;17.30;58.50;;;;;;5094355;28;19954;-73
2024/03/26 14:02:51;;;;;;;;;;;17.40;58.40;;;;;;5093680;28;19920;-73
2024/03/26 14:05:17;;;;;;;;;;;17.30;58.70;;;;;;5093995;28;20393;-71
2024/03/26 14:07:43;;;;;;;;;;;17.30;59.10;;;;;;5093976;28;19915;-72
2024/03/26 14:10:09;;;;;;;;;;;17.30;58.60;;;;;;5093934;28;19958;-72